Terminal Aerodrome Forecast
Issued by NWS Indianapolis, IN

Home | Current Version | Previous Version | Text Only | Print | Product List | Glossary On
Versions: 1 2 3 4 5 6 7 8 9 10 11 12 13 14 15 16 17 18 19 20 21 22 23 24 25 26 27 28 29 30
000
FTUS43 KIND 250700 AAA
TAFIND
TAF AMD
KIND 250706Z 2507/2612 25014KT P6SM VCSH SCT009 OVC015
      TEMPO 2507/2510 OVC009
     FM251300 22011KT P6SM OVC012
     FM251700 21012KT P6SM BKN025
     FM252300 17008KT P6SM SCT030 BKN250=

USA.gov is the U.S. government's official web portal to all federal, state and local government web resources and services.